Time;durP1;ratioP1;P1;durP2;ratioP2;P2;SDS_P1;SDS_P2;PMS_P1;PMS_P2;Temp;Humidity;BMP_temperature;BMP_pressure;BME280_temperature;BME280_humidity;BME280_pressure;Samples;Min_cycle;Max_cycle;Signal;HPM_P1;HPM_P2
2022/01/18 00:01:54;;;;;;;;;77.00;60.00;;;;;6.48;70.75;103596.16;5105664;27;46889;-73
2022/01/18 00:04:20;;;;;;;;;78.50;57.75;;;;;6.46;70.81;103581.13;5064287;27;56767;-72
2022/01/18 00:06:49;;;;;;;;;80.00;57.75;;;;;6.38;70.76;103554.31;5073469;27;45474;-72
2022/01/18 00:09:15;;;;;;;;;76.75;59.00;;;;;6.36;70.83;103563.81;5086492;27;45564;-73
2022/01/18 00:11:46;;;;;;;;;76.50;58.25;;;;;6.36;70.93;103576.94;5120007;27;46738;-71
2022/01/18 00:14:22;;;;;;;;;76.50;56.25;;;;;6.45;70.99;103584.56;5101989;27;45355;-73
2022/01/18 00:17:16;;;;;;;;;82.50;59.75;;;;;6.33;70.71;103549.53;5120223;27;45252;-71
2022/01/18 00:19:45;;;;;;;;;75.25;56.50;;;;;6.33;70.75;103563.56;5120643;27;45584;-71
2022/01/18 00:22:12;;;;;;;;;70.75;54.25;;;;;6.40;70.72;103593.81;5102216;27;46474;-73
2022/01/18 00:24:39;;;;;;;;;67.75;50.75;;;;;6.29;70.75;103551.97;5120723;27;45523;-71
2022/01/18 00:27:11;;;;;;;;;72.50;57.75;;;;;6.38;70.87;103579.66;5118186;27;45492;-72
2022/01/18 00:29:41;;;;;;;;;76.00;55.00;;;;;6.37;70.82;103581.38;5102501;27;45469;-71
2022/01/18 00:32:28;;;;;;;;;68.50;53.25;;;;;6.38;70.84;103583.19;5120008;27;45881;-71
2022/01/18 00:34:55;;;;;;;;;76.00;53.25;;;;;6.35;70.90;103556.75;5119993;27;45434;-72
2022/01/18 00:37:28;;;;;;;;;67.00;52.50;;;;;6.33;70.82;103560.03;5101973;27;45314;-71
2022/01/18 00:39:54;;;;;;;;;69.75;53.25;;;;;6.26;70.36;103575.34;5102921;27;45287;-73
2022/01/18 00:42:19;;;;;;;;;74.00;53.75;;;;;6.30;71.18;103566.00;5101543;27;46565;-71
2022/01/18 00:44:45;;;;;;;;;78.25;56.25;;;;;6.34;70.76;103554.91;5101921;27;45476;-72
2022/01/18 00:47:10;;;;;;;;;74.50;54.50;;;;;6.30;70.72;103576.47;5101143;27;45357;-72
2022/01/18 00:49:42;;;;;;;;;70.00;53.25;;;;;6.29;70.86;103569.41;5120101;27;45562;-71
2022/01/18 00:52:07;;;;;;;;;75.00;56.75;;;;;6.20;70.75;103543.41;5119818;27;46588;-73
2022/01/18 00:54:38;;;;;;;;;70.50;53.00;;;;;6.23;70.85;103555.81;5101106;27;45270;-72
2022/01/18 00:57:04;;;;;;;;;66.50;51.50;;;;;6.18;70.81;103559.84;5119486;27;45410;-71
2022/01/18 00:59:30;;;;;;;;;73.50;57.75;;;;;6.24;70.94;103576.97;5119705;27;45465;-72
2022/01/18 01:01:55;;;;;;;;;80.50;58.75;;;;;6.25;70.83;103562.13;5100096;27;54614;-72
2022/01/18 01:04:24;;;;;;;;;74.75;58.25;;;;;6.14;70.82;103548.22;5101689;27;59727;-71
2022/01/18 01:06:49;;;;;;;;;66.50;56.50;;;;;6.23;70.99;103572.50;5068145;27;47175;-71
2022/01/18 01:09:14;;;;;;;;;64.75;50.75;;;;;6.15;70.77;103560.53;5119586;27;45325;-72
2022/01/18 01:11:40;;;;;;;;;71.00;54.00;;;;;6.22;70.69;103561.88;5103159;27;46362;-72
2022/01/18 01:14:08;;;;;;;;;67.25;52.25;;;;;6.20;71.07;103561.78;5098810;27;45439;-72
2022/01/18 01:19:12;;;;;;;;;67.50;50.25;;;;;6.13;70.78;103551.66;5101249;27;45341;-72
2022/01/18 01:43:31;;;;;;;;;53.50;40.00;;;;;6.24;71.26;103573.41;5118959;27;45279;-74
2022/01/18 01:45:58;;;;;;;;;44.00;35.25;;;;;6.32;71.37;103571.34;5114972;27;45345;-71
2022/01/18 01:48:24;;;;;;;;;49.00;37.50;;;;;6.34;71.72;103565.41;5088360;27;45438;-71
2022/01/18 01:50:53;;;;;;;;;44.00;28.00;;;;;6.38;71.59;103554.31;5100130;27;45490;-71
2022/01/18 01:53:23;;;;;;;;;38.75;34.75;;;;;6.46;71.35;103561.03;5101101;27;46077;-74
2022/01/18 01:55:49;;;;;;;;;38.75;26.50;;;;;6.61;71.45;103565.56;5083029;27;45468;-71
2022/01/18 01:58:15;;;;;;;;;40.25;30.50;;;;;6.67;71.47;103558.13;5118694;27;45310;-73
2022/01/18 02:00:45;;;;;;;;;42.50;34.00;;;;;6.65;71.25;103550.09;5114214;27;45755;-71
2022/01/18 02:03:11;;;;;;;;;41.50;32.75;;;;;6.79;71.21;103573.00;5080601;27;46833;-73
2022/01/18 02:05:36;;;;;;;;;30.00;27.50;;;;;6.79;71.18;103553.72;5079868;27;45429;-73
2022/01/18 02:08:02;;;;;;;;;41.25;24.50;;;;;6.81;71.40;103550.38;5079448;27;52114;-72
2022/01/18 02:10:27;;;;;;;;;36.75;29.25;;;;;6.93;71.27;103567.81;5089344;27;45383;-71
2022/01/18 02:12:53;;;;;;;;;43.75;29.50;;;;;6.83;71.04;103543.53;5118625;27;45796;-73
2022/01/18 02:15:19;;;;;;;;;33.50;28.00;;;;;6.82;70.94;103552.22;5118409;27;45855;-72
2022/01/18 02:23:16;;;;;;;;;34.00;26.00;;;;;7.03;70.89;103572.88;5102137;27;45393;-72
2022/01/18 02:25:41;;;;;;;;;37.25;26.25;;;;;7.06;70.56;103581.00;5087947;27;45298;-74
2022/01/18 02:28:09;;;;;;;;;34.50;25.75;;;;;7.03;70.88;103549.25;5078925;27;52104;-72
2022/01/18 02:30:34;;;;;;;;;32.75;22.25;;;;;7.09;70.74;103565.47;5110362;27;45216;-72
2022/01/18 02:33:00;;;;;;;;;34.25;21.75;;;;;7.09;70.92;103557.56;5100081;27;53586;-72
2022/01/18 02:35:25;;;;;;;;;25.50;23.00;;;;;7.12;70.73;103556.84;5093656;27;45616;-72
2022/01/18 02:37:52;;;;;;;;;30.50;24.25;;;;;7.11;70.65;103550.69;5097558;27;54447;-73
2022/01/18 02:40:17;;;;;;;;;28.25;19.75;;;;;7.03;70.83;103551.88;5097756;27;45720;-72
2022/01/18 02:42:54;;;;;;;;;28.25;19.00;;;;;7.11;70.43;103568.19;5078818;27;62818;-72
2022/01/18 02:45:20;;;;;;;;;29.50;20.50;;;;;7.09;70.58;103555.84;5110446;27;45244;-72
2022/01/18 02:47:46;;;;;;;;;28.75;18.75;;;;;7.13;70.61;103561.31;5078701;27;52383;-72
2022/01/18 02:50:11;;;;;;;;;33.00;19.00;;;;;7.11;70.68;103555.94;5097481;27;45531;-73
2022/01/18 02:52:36;;;;;;;;;22.25;19.50;;;;;7.13;70.51;103559.59;5097206;27;54000;-72
2022/01/18 02:55:02;;;;;;;;;25.50;22.50;;;;;7.08;70.76;103546.16;5093260;27;60115;-72
2022/01/18 02:57:27;;;;;;;;;24.50;21.50;;;;;7.02;70.64;103534.28;5096457;27;45354;-72
2022/01/18 03:00:30;;;;;;;;;27.25;21.00;;;;;7.12;70.51;103562.13;5096625;27;50847;-73
2022/01/18 03:05:28;;;;;;;;;24.25;21.00;;;;;7.12;70.44;103554.22;5077102;28;45298;-72
2022/01/18 03:07:54;;;;;;;;;27.00;22.25;;;;;7.08;70.49;103556.66;5075439;27;49678;-72
2022/01/18 03:10:19;;;;;;;;;26.75;22.00;;;;;7.09;70.82;103550.59;5088005;27;53740;-72
2022/01/18 03:12:45;;;;;;;;;32.75;22.75;;;;;7.12;70.62;103549.88;5095416;27;46125;-73
2022/01/18 03:15:10;;;;;;;;;32.25;21.75;;;;;7.07;70.54;103544.31;5096360;27;45486;-72
2022/01/18 03:17:35;;;;;;;;;21.75;18.75;;;;;7.06;70.71;103532.00;5096122;27;45899;-73
2022/01/18 03:20:03;;;;;;;;;27.25;19.75;;;;;7.12;70.46;103533.22;5061854;27;45547;-72
2022/01/18 03:22:28;;;;;;;;;31.75;22.75;;;;;7.14;70.25;103536.84;5096755;27;46630;-72
2022/01/18 03:30:05;;;;;;;;;22.75;18.50;;;;;7.13;70.47;103501.78;5096570;27;45435;-71
2022/01/18 03:32:30;;;;;;;;;24.00;19.25;;;;;7.12;70.37;103518.34;5078521;27;47524;-72
2022/01/18 03:34:55;;;;;;;;;27.25;19.50;;;;;7.14;70.43;103514.13;5083778;27;48127;-72
2022/01/18 03:37:21;;;;;;;;;34.00;20.75;;;;;7.14;70.21;103514.13;5094385;27;57386;-72
2022/01/18 03:39:46;;;;;;;;;37.00;21.75;;;;;7.13;70.33;103521.91;5097446;27;45477;-71
2022/01/18 03:44:58;;;;;;;;;23.25;20.50;;;;;7.14;70.13;103513.19;5095958;27;45303;-72
2022/01/18 03:47:23;;;;;;;;;18.50;17.75;;;;;7.14;70.20;103522.03;5096507;27;45492;-72
2022/01/18 03:49:49;;;;;;;;;20.50;14.75;;;;;7.12;70.32;103523.63;5096697;27;45296;-73
2022/01/18 03:52:14;;;;;;;;;28.25;20.25;;;;;7.12;70.28;103522.72;5096622;27;46564;-73
2022/01/18 03:54:43;;;;;;;;;29.25;18.25;;;;;6.85;70.28;103474.44;5106130;27;55008;-71
2022/01/18 03:57:10;;;;;;;;;32.75;20.25;;;;;7.03;70.17;103500.28;5115675;27;45231;-73
2022/01/18 03:59:35;;;;;;;;;28.50;19.00;;;;;7.07;70.48;103507.53;5105428;27;53608;-72
2022/01/18 04:02:00;;;;;;;;;35.00;21.50;;;;;7.13;70.09;103514.00;5078824;27;57143;-72
2022/01/18 04:04:26;;;;;;;;;34.25;23.75;;;;;7.14;70.19;103511.50;5099741;27;54379;-72
2022/01/18 04:06:51;;;;;;;;;35.75;23.00;;;;;7.15;70.12;103513.31;5099938;27;56747;-73
2022/01/18 04:09:19;;;;;;;;;37.75;24.25;;;;;7.07;70.21;103496.13;5095733;27;55631;-72
2022/01/18 04:11:44;;;;;;;;;33.75;22.50;;;;;7.17;70.08;103516.06;5099878;27;46879;-72
2022/01/18 04:14:09;;;;;;;;;33.00;23.25;;;;;7.16;70.27;103515.13;5099753;27;45391;-71
2022/01/18 04:16:43;;;;;;;;;35.50;24.00;;;;;7.14;70.04;103511.50;5100045;27;45379;-72
2022/01/18 04:27:26;;;;;;;;;34.25;23.00;;;;;7.05;70.16;103500.38;5119901;27;45483;-72
2022/01/18 04:29:51;;;;;;;;;29.50;18.50;;;;;7.16;70.12;103522.13;5087507;27;45593;-71
2022/01/18 04:32:16;;;;;;;;;31.50;29.50;;;;;7.06;70.31;103496.94;5098931;27;60018;-72
2022/01/18 04:34:42;;;;;;;;;36.75;25.00;;;;;7.15;70.06;103515.03;5081805;27;45463;-72
2022/01/18 04:37:07;;;;;;;;;39.25;27.00;;;;;7.08;70.17;103503.19;5095268;27;45379;-71
2022/01/18 04:39:37;;;;;;;;;32.75;26.50;;;;;7.16;70.00;103525.66;5084864;27;45296;-72
2022/01/18 04:42:03;;;;;;;;;31.00;25.50;;;;;7.16;70.28;103517.78;5119802;27;45712;-72
2022/01/18 04:49:56;;;;;;;;;42.75;29.75;;;;;7.11;70.16;103507.75;5104527;27;45294;-72
2022/01/18 04:52:22;;;;;;;;;32.75;26.25;;;;;7.11;70.20;103507.75;5119865;27;46560;-71
2022/01/18 04:54:57;;;;;;;;;36.75;25.25;;;;;7.11;70.12;103513.00;5100601;27;54631;-71
2022/01/18 04:59:48;;;;;;;;;47.50;28.00;;;;;7.08;70.06;103506.75;5120037;27;45602;-71
2022/01/18 05:02:13;;;;;;;;;36.25;25.50;;;;;7.06;70.13;103502.19;5101684;27;56390;-73
2022/01/18 05:04:39;;;;;;;;;30.00;24.75;;;;;7.08;70.23;103504.13;5115332;27;45349;-73
2022/01/18 05:07:08;;;;;;;;;31.25;25.50;;;;;7.03;70.22;103499.34;5101086;27;45844;-72
2022/01/18 05:09:33;;;;;;;;;29.25;21.50;;;;;7.07;70.34;103511.88;5119930;27;45530;-73
2022/01/18 05:12:12;;;;;;;;;30.75;22.75;;;;;7.04;70.10;103511.69;5100542;27;60736;-74
2022/01/18 05:14:37;;;;;;;;;32.00;27.50;;;;;7.06;70.11;103510.06;5102223;27;45509;-72
2022/01/18 05:20:41;;;;;;;;;39.00;26.00;;;;;7.02;70.10;103513.28;5101629;27;45740;-71
2022/01/18 05:25:10;;;;;;;;;37.25;23.25;;;;;7.00;70.18;103514.91;5113255;27;45393;-72
2022/01/18 05:27:35;;;;;;;;;31.25;22.25;;;;;7.01;70.19;103508.84;5086300;27;45646;-71
2022/01/18 05:30:01;;;;;;;;;29.25;22.00;;;;;6.98;70.07;103498.13;5079949;27;52753;-72
2022/01/18 05:32:26;;;;;;;;;35.25;22.25;;;;;6.95;70.41;103504.06;5090888;27;57181;-72
2022/01/18 05:34:51;;;;;;;;;34.25;26.25;;;;;6.96;70.51;103504.97;5117954;27;49003;-72
2022/01/18 05:37:17;;;;;;;;;24.75;20.50;;;;;6.88;70.10;103480.84;5078044;27;53386;-72
2022/01/18 05:39:42;;;;;;;;;35.75;22.50;;;;;6.95;70.22;103490.03;5098710;27;45331;-71
2022/01/18 05:42:08;;;;;;;;;44.25;25.50;;;;;6.97;70.06;103491.03;5116292;27;61682;-73
2022/01/18 05:44:33;;;;;;;;;35.50;29.00;;;;;6.93;70.30;103487.31;5117693;27;45753;-73
2022/01/18 05:46:59;;;;;;;;;42.25;30.25;;;;;6.94;70.23;103485.59;5117173;27;59019;-73
2022/01/18 05:49:24;;;;;;;;;37.75;28.50;;;;;6.96;70.31;103483.97;5099105;27;45447;-73
2022/01/18 05:51:49;;;;;;;;;29.25;21.75;;;;;6.93;70.24;103475.91;5107532;27;56185;-74
2022/01/18 05:54:15;;;;;;;;;31.75;20.75;;;;;6.87;70.30;103471.16;5115802;27;45564;-71
2022/01/18 05:56:40;;;;;;;;;25.50;18.75;;;;;6.85;70.41;103461.31;5098921;27;45437;-71
2022/01/18 05:59:06;;;;;;;;;25.00;18.50;;;;;6.84;70.14;103468.28;5116996;27;45364;-71
2022/01/18 06:01:34;;;;;;;;;26.25;15.00;;;;;6.82;70.22;103469.91;5116008;27;46550;-72
2022/01/18 06:09:10;;;;;;;;;21.50;18.50;;;;;6.87;70.27;103493.84;5097756;27;45698;-75
2022/01/18 06:11:35;;;;;;;;;29.00;19.25;;;;;6.85;70.16;103483.25;5083136;27;46483;-74
2022/01/18 06:14:00;;;;;;;;;26.25;18.00;;;;;6.85;70.04;103496.38;5118085;27;45538;-73
2022/01/18 06:16:26;;;;;;;;;22.00;17.00;;;;;6.83;69.88;103488.41;5098844;27;57355;-73
2022/01/18 06:18:53;;;;;;;;;24.75;18.75;;;;;6.82;70.16;103494.47;5087146;27;45386;-75
2022/01/18 06:21:19;;;;;;;;;23.75;17.75;;;;;6.73;69.93;103487.66;5097787;27;45920;-75
2022/01/18 06:23:44;;;;;;;;;25.75;17.75;;;;;6.80;70.14;103508.28;5072348;27;45604;-75
2022/01/18 06:26:14;;;;;;;;;26.75;18.00;;;;;6.80;70.47;103503.00;5117273;27;45413;-73
2022/01/18 06:28:40;;;;;;;;;34.25;19.50;;;;;6.81;70.23;103512.72;5087507;27;45502;-73
2022/01/18 06:31:05;;;;;;;;;29.25;23.25;;;;;6.83;70.20;103525.16;5092158;27;45356;-74
2022/01/18 06:33:30;;;;;;;;;33.50;18.50;;;;;6.81;70.28;103520.59;5114871;27;57047;-72
2022/01/18 06:35:56;;;;;;;;;26.25;19.50;;;;;6.80;70.22;103513.53;5100001;27;54154;-71
2022/01/18 06:38:21;;;;;;;;;35.75;22.50;;;;;6.72;70.16;103506.84;5092963;27;45333;-73
2022/01/18 06:40:49;;;;;;;;;38.00;22.50;;;;;6.78;70.31;103517.78;5103738;27;57106;-73
2022/01/18 06:43:15;;;;;;;;;23.25;18.75;;;;;6.76;70.28;103512.38;5085778;27;45409;-73
2022/01/18 06:45:40;;;;;;;;;24.00;21.75;;;;;6.78;69.98;103523.94;5115626;27;45203;-74
2022/01/18 06:48:05;;;;;;;;;28.75;22.50;;;;;6.79;69.90;103531.00;5094683;27;47518;-74
2022/01/18 06:50:31;;;;;;;;;23.75;19.25;;;;;6.70;70.10;103513.69;5098762;27;45609;-74
2022/01/18 06:52:56;;;;;;;;;28.25;18.50;;;;;6.77;70.08;103526.47;5105800;27;59071;-74
2022/01/18 06:55:21;;;;;;;;;36.50;23.50;;;;;6.71;69.99;103516.44;5197957;22;45843;-73
2022/01/18 06:57:47;;;;;;;;;23.25;19.00;;;;;6.75;69.97;103523.69;5074203;27;45350;-73
2022/01/18 07:00:13;;;;;;;;;28.00;18.00;;;;;6.66;70.09;103512.59;5075436;27;45724;-72
2022/01/18 07:02:38;;;;;;;;;31.50;22.00;;;;;6.71;70.13;103521.69;5069383;27;45674;-73
2022/01/18 07:05:04;;;;;;;;;25.00;21.00;;;;;6.71;70.05;103531.25;5093968;27;45500;-73
2022/01/18 07:07:30;;;;;;;;;29.75;19.25;;;;;6.62;70.02;103512.25;5092015;27;45447;-72
2022/01/18 07:09:55;;;;;;;;;21.25;18.00;;;;;6.66;69.92;103512.59;5071000;27;58532;-72
2022/01/18 07:12:22;;;;;;;;;31.75;25.75;;;;;6.65;70.03;103504.56;5068056;27;45654;-76
2022/01/18 07:14:47;;;;;;;;;34.75;26.75;;;;;6.59;70.05;103499.81;5088498;27;45921;-73
2022/01/18 07:17:13;;;;;;;;;21.75;18.50;;;;;6.59;70.17;103502.44;5094632;27;54220;-73
2022/01/18 07:19:38;;;;;;;;;31.00;23.25;;;;;6.56;70.39;103507.50;5075903;27;47547;-74
2022/01/18 07:22:04;;;;;;;;;30.00;22.75;;;;;6.57;70.29;103515.47;5074385;27;45644;-73
2022/01/18 07:27:07;;;;;;;;;37.25;27.25;;;;;6.60;70.27;103509.50;5092737;27;45522;-73
2022/01/18 07:29:33;;;;;;;;;41.75;28.00;;;;;6.61;70.31;103507.81;5052126;28;45603;-75
2022/01/18 07:31:58;;;;;;;;;38.00;26.25;;;;;6.60;70.32;103503.34;5092605;27;45373;-73
2022/01/18 07:34:24;;;;;;;;;33.50;23.50;;;;;6.64;70.31;103505.38;5085006;27;46529;-73
2022/01/18 07:36:49;;;;;;;;;36.25;28.25;;;;;6.60;70.47;103496.38;5094254;27;45373;-72
2022/01/18 07:39:14;;;;;;;;;41.75;25.00;;;;;6.61;70.38;103490.34;5075595;27;57790;-72
2022/01/18 07:41:40;;;;;;;;;32.00;24.75;;;;;6.61;71.07;103481.56;5078003;27;55365;-73
2022/01/18 07:44:05;;;;;;;;;28.50;23.75;;;;;6.64;70.88;103487.00;5075377;27;53016;-72
2022/01/18 07:46:31;;;;;;;;;39.50;28.25;;;;;6.62;70.70;103488.63;5077135;27;45967;-73
2022/01/18 07:48:56;;;;;;;;;47.50;32.50;;;;;6.64;70.53;103489.63;5063878;27;45753;-73
2022/01/18 07:51:21;;;;;;;;;42.50;31.00;;;;;6.65;70.59;103497.59;5058514;27;60205;-73
2022/01/18 07:53:47;;;;;;;;;44.50;30.25;;;;;6.67;70.93;103492.47;5096758;27;52488;-71
2022/01/18 07:56:13;;;;;;;;;40.50;29.75;;;;;6.67;70.56;103489.84;5089579;27;49465;-72
2022/01/18 07:58:38;;;;;;;;;38.25;25.75;;;;;6.62;70.32;103494.78;5077825;27;46526;-74
2022/01/18 08:01:04;;;;;;;;;37.50;29.25;;;;;6.59;70.34;103484.06;5097857;27;55682;-74
2022/01/18 08:03:29;;;;;;;;;41.50;36.75;;;;;6.62;70.30;103496.50;5076174;27;45823;-73
2022/01/18 08:05:55;;;;;;;;;40.25;29.00;;;;;6.52;70.84;103469.59;5097706;27;45420;-73
2022/01/18 08:08:22;;;;;;;;;37.25;28.75;;;;;6.59;70.66;103473.56;5077514;27;45844;-73
2022/01/18 08:10:47;;;;;;;;;35.50;29.00;;;;;6.46;70.45;103450.81;5062442;27;45521;-73
2022/01/18 08:13:13;;;;;;;;;38.00;30.25;;;;;6.60;70.56;103482.34;5059252;28;45445;-74
2022/01/18 08:15:39;;;;;;;;;40.00;28.50;;;;;6.54;70.60;103461.81;5054777;28;45527;-73
2022/01/18 08:18:09;;;;;;;;;32.50;23.50;;;;;6.48;70.64;103443.94;5093832;27;46906;-73
2022/01/18 08:20:34;;;;;;;;;50.00;30.50;;;;;6.64;70.56;103480.03;5071636;27;45450;-73
2022/01/18 08:23:00;;;;;;;;;43.25;30.00;;;;;6.63;70.55;103480.84;5076919;27;45545;-72
2022/01/18 08:25:25;;;;;;;;;43.50;34.75;;;;;6.61;70.73;103479.84;5077564;27;45299;-72
2022/01/18 08:27:51;;;;;;;;;52.50;35.50;;;;;6.63;70.83;103480.84;5076503;27;46634;-73
2022/01/18 08:30:20;;;;;;;;;48.00;33.75;;;;;6.55;71.16;103463.63;5096305;27;55357;-74
2022/01/18 08:32:46;;;;;;;;;45.50;35.50;;;;;6.64;70.96;103476.50;5073982;27;45492;-73
2022/01/18 08:35:12;;;;;;;;;44.25;29.75;;;;;6.65;70.85;103473.06;5096028;27;45293;-75
2022/01/18 08:37:37;;;;;;;;;50.00;30.25;;;;;6.65;70.55;103484.47;5063591;27;45995;-73
2022/01/18 08:40:03;;;;;;;;;51.00;37.50;;;;;6.68;71.23;103479.47;5097221;27;58352;-74
2022/01/18 08:42:29;;;;;;;;;44.75;34.00;;;;;6.68;70.80;103479.47;5095090;27;45330;-73
2022/01/18 08:47:24;;;;;;;;;43.50;33.25;;;;;6.71;70.83;103490.19;5110747;22;45932;-73
2022/01/18 08:49:50;;;;;;;;;51.75;34.00;;;;;6.71;70.85;103490.19;5089296;27;45505;-73
2022/01/18 08:52:15;;;;;;;;;50.00;37.25;;;;;6.82;70.69;103485.66;5067320;27;45330;-74
2022/01/18 08:54:42;;;;;;;;;49.75;38.25;;;;;6.81;70.71;103503.13;5087636;27;45418;-72
2022/01/18 08:57:08;;;;;;;;;56.50;42.50;;;;;6.82;70.69;103485.66;5088537;27;47001;-72
2022/01/18 08:59:35;;;;;;;;;47.50;34.75;;;;;6.68;70.80;103463.69;5095726;27;45519;-73
2022/01/18 09:02:04;;;;;;;;;56.25;38.50;;;;;6.79;70.91;103482.81;5094173;27;45385;-73
2022/01/18 09:04:29;;;;;;;;;56.25;39.00;;;;;6.70;70.99;103471.69;5096889;27;45644;-73
2022/01/18 09:06:56;;;;;;;;;40.50;31.00;;;;;6.68;70.85;103466.31;5094338;27;59570;-72
2022/01/18 09:09:21;;;;;;;;;45.25;34.00;;;;;6.75;70.58;103480.78;5095924;27;46030;-73
2022/01/18 09:11:47;;;;;;;;;58.50;38.25;;;;;6.74;70.88;103490.38;5096980;27;45484;-73
2022/01/18 09:14:13;;;;;;;;;55.00;38.50;;;;;6.74;70.49;103485.13;5085783;27;45768;-72
2022/01/18 09:16:38;;;;;;;;;49.00;37.50;;;;;6.73;70.54;103483.31;5092451;27;46595;-72
2022/01/18 09:19:04;;;;;;;;;46.50;38.00;;;;;6.62;70.52;103463.28;5086678;27;56829;-74
2022/01/18 09:21:32;;;;;;;;;57.00;41.00;;;;;6.62;70.48;103471.16;5091142;27;49237;-73
2022/01/18 09:23:57;;;;;;;;;56.25;38.75;;;;;6.67;70.55;103480.25;5088588;27;45528;-73
2022/01/18 09:26:22;;;;;;;;;52.50;39.75;;;;;6.66;70.81;103477.50;5089279;27;56805;-73
2022/01/18 09:28:48;;;;;;;;;58.25;41.75;;;;;6.65;70.84;103476.59;5080885;27;57735;-73
2022/01/18 09:31:13;;;;;;;;;65.00;44.25;;;;;6.70;70.91;103476.94;5096428;27;45526;-73
2022/01/18 09:33:38;;;;;;;;;56.00;42.75;;;;;6.67;71.10;103479.34;5078077;27;45398;-74
2022/01/18 09:36:04;;;;;;;;;52.25;40.50;;;;;6.70;71.17;103485.72;5089571;27;58282;-74
2022/01/18 09:38:30;;;;;;;;;60.25;44.00;;;;;6.77;71.30;103484.44;5096306;27;45590;-73
2022/01/18 09:40:56;;;;;;;;;48.00;40.50;;;;;6.79;71.07;103481.09;5093141;27;45387;-71
2022/01/18 09:43:22;;;;;;;;;43.75;38.50;;;;;6.83;71.25;103470.00;5117742;22;45623;-71
2022/01/18 09:45:47;;;;;;;;;51.00;42.25;;;;;6.86;71.29;103468.38;5117373;22;46116;-72
2022/01/18 09:48:13;;;;;;;;;52.50;42.00;;;;;6.90;71.44;103473.97;5111408;22;45441;-72
2022/01/18 09:50:40;;;;;;;;;46.00;39.75;;;;;6.89;71.16;103458.09;5062861;22;45636;-72
2022/01/18 09:53:07;;;;;;;;;52.25;42.00;;;;;6.98;71.63;103466.63;5031790;28;45631;-72
2022/01/18 09:55:33;;;;;;;;;41.50;34.75;;;;;7.01;71.56;103467.72;5016621;28;46623;-73
2022/01/18 09:57:59;;;;;;;;;59.00;40.00;;;;;6.94;71.64;103448.81;5036288;28;45501;-73
2022/01/18 10:00:25;;;;;;;;;59.50;43.50;;;;;7.04;71.71;103449.56;5031814;28;45635;-73
2022/01/18 10:02:51;;;;;;;;;48.25;37.75;;;;;7.21;71.89;103483.94;5035174;28;45617;-73
2022/01/18 10:05:18;;;;;;;;;41.50;38.25;;;;;7.21;72.24;103468.16;5046840;28;46696;-73
2022/01/18 10:07:44;;;;;;;;;48.00;35.25;;;;;7.29;72.27;103462.59;5103137;22;45536;-73
2022/01/18 10:10:09;;;;;;;;;33.50;29.75;;;;;7.31;72.25;103455.72;5075025;27;45377;-73
2022/01/18 10:12:35;;;;;;;;;40.00;32.50;;;;;7.44;72.42;103464.41;5094111;27;45531;-74
2022/01/18 10:15:01;;;;;;;;;43.25;29.75;;;;;7.42;72.30;103451.19;5076294;27;55770;-72
2022/01/18 10:17:32;;;;;;;;;40.50;31.25;;;;;7.55;72.63;103458.16;5078941;27;46629;-71
2022/01/18 10:20:20;;;;;;;;;39.25;26.50;;;;;7.50;72.36;103442.06;5095062;27;45573;-72
2022/01/18 10:22:49;;;;;;;;;46.50;37.00;;;;;7.68;72.06;103457.25;5091869;27;45552;-72
2022/01/18 10:25:25;;;;;;;;;45.75;33.25;;;;;7.65;72.57;103436.91;5095492;27;46114;-72
2022/01/18 10:27:53;;;;;;;;;36.25;28.25;;;;;7.73;72.61;103433.06;5079657;27;45599;-74
2022/01/18 10:30:24;;;;;;;;;35.75;29.75;;;;;7.77;72.28;103427.16;5077392;27;46566;-72
2022/01/18 10:33:19;;;;;;;;;36.00;27.75;;;;;7.92;72.48;103439.47;5076010;27;45489;-72
2022/01/18 10:36:09;;;;;;;;;37.00;26.50;;;;;8.01;72.38;103435.72;5068519;28;46676;-73
2022/01/18 10:38:35;;;;;;;;;37.75;30.00;;;;;8.04;72.64;103416.56;5093960;27;45492;-72
2022/01/18 10:41:30;;;;;;;;;38.50;27.50;;;;;8.13;72.60;103422.41;5073972;27;45552;-72
2022/01/18 10:44:09;;;;;;;;;37.00;31.50;;;;;8.19;72.56;103414.91;5076034;27;45543;-73
2022/01/18 10:46:39;;;;;;;;;29.25;25.25;;;;;8.18;72.25;103391.13;5067631;27;46635;-73
2022/01/18 10:49:05;;;;;;;;;45.25;34.25;;;;;8.21;72.43;103388.69;5094222;27;45512;-73
2022/01/18 10:51:31;;;;;;;;;41.00;27.00;;;;;8.32;72.46;103396.44;5096448;27;45477;-73
2022/01/18 10:54:03;;;;;;;;;33.25;27.75;;;;;8.38;72.47;103402.09;5098686;27;45455;-72
2022/01/18 10:56:42;;;;;;;;;39.00;25.25;;;;;8.38;72.34;103375.78;5066198;27;46891;-72
2022/01/18 10:59:08;;;;;;;;;41.75;33.75;;;;;8.44;72.54;103366.44;5060326;27;45489;-73
2022/01/18 11:01:33;;;;;;;;;35.25;26.50;;;;;8.57;72.35;103385.69;5060576;27;45571;-73
2022/01/18 11:04:11;;;;;;;;;34.25;31.25;;;;;8.63;72.35;103367.63;5057691;27;45465;-72
2022/01/18 11:06:36;;;;;;;;;35.00;28.00;;;;;8.69;72.25;103371.44;5067016;28;46092;-73
2022/01/18 11:09:15;;;;;;;;;37.75;26.50;;;;;8.66;72.24;103343.19;5068455;27;45714;-75
2022/01/18 11:11:44;;;;;;;;;33.75;23.00;;;;;8.79;72.14;103357.97;5097006;27;45332;-72
2022/01/18 11:14:11;;;;;;;;;37.50;30.50;;;;;8.86;72.34;103360.16;5082584;27;45698;-72
2022/01/18 11:16:41;;;;;;;;;31.75;23.50;;;;;8.87;72.22;103336.53;5099357;27;45933;-73
2022/01/18 11:19:33;;;;;;;;;34.50;27.00;;;;;8.98;72.09;103352.97;5080790;27;45567;-74
2022/01/18 11:22:04;;;;;;;;;33.50;24.00;;;;;9.02;71.73;103331.25;5064515;27;45543;-73
2022/01/18 11:24:29;;;;;;;;;31.25;24.25;;;;;9.02;71.46;103307.53;5080199;27;45624;-71
2022/01/18 11:26:55;;;;;;;;;36.50;25.75;;;;;9.15;71.69;103320.56;5063080;27;46698;-72
2022/01/18 11:29:21;;;;;;;;;26.75;21.00;;;;;9.19;71.64;103311.13;5079684;27;45805;-72
2022/01/18 11:31:47;;;;;;;;;36.50;24.50;;;;;9.26;71.32;103318.53;5080654;27;45394;-72
2022/01/18 11:34:16;;;;;;;;;27.50;20.75;;;;;9.31;71.56;103306.53;5081074;27;45398;-72
2022/01/18 11:36:44;;;;;;;;;27.25;23.50;;;;;9.37;71.14;103306.88;5096484;27;45662;-73
2022/01/18 11:39:11;;;;;;;;;26.00;19.50;;;;;9.42;71.25;103299.22;5077526;27;45590;-73
2022/01/18 11:41:36;;;;;;;;;27.00;19.00;;;;;9.46;70.99;103298.56;5061918;27;45516;-72
2022/01/18 11:44:26;;;;;;;;;28.50;21.50;;;;;9.44;70.76;103282.66;5077276;27;45649;-72
2022/01/18 11:46:55;;;;;;;;;24.00;19.00;;;;;9.44;70.70;103265.94;5079470;27;45848;-72
2022/01/18 11:49:22;;;;;;;;;27.75;21.00;;;;;9.55;70.52;103274.44;5078761;27;45316;-72
2022/01/18 11:51:48;;;;;;;;;22.50;15.25;;;;;9.66;70.50;103286.47;5061497;28;45357;-72
2022/01/18 11:55:09;;;;;;;;;22.75;17.50;;;;;9.70;70.24;103278.81;5079024;28;45504;-73
2022/01/18 11:57:32;;;;;;;;;19.50;13.75;;;;;9.77;70.36;103281.78;5073589;28;47521;-72
2022/01/18 12:00:04;;;;;;;;;18.25;15.75;;;;;9.80;69.91;103267.03;5079209;27;45462;-72
2022/01/18 12:02:38;;;;;;;;;15.50;14.00;;;;;9.86;69.83;103262.06;5071401;28;45346;-72
2022/01/18 12:05:14;;;;;;;;;17.50;12.50;;;;;9.88;69.71;103255.13;5061107;28;45630;-72
2022/01/18 12:07:41;;;;;;;;;15.67;10.33;;;;;9.96;69.36;103260.81;5078031;27;46648;-72
2022/01/18 12:10:22;;;;;;;;;16.67;11.67;;;;;10.01;68.97;103253.13;5078016;27;45885;-73
2022/01/18 12:12:51;;;;;;;;;11.67;9.33;;;;;10.04;68.92;103251.56;5078762;27;45465;-72
2022/01/18 12:15:16;;;;;;;;;14.00;8.33;;;;;10.07;69.15;103253.47;5044098;28;45552;-73
2022/01/18 12:17:54;;;;;;;;;9.00;7.00;;;;;10.10;68.33;103237.78;5078199;28;46737;-73
2022/01/18 12:20:32;;;;;;;;;11.25;8.75;;;;;10.14;68.11;103231.81;5078838;27;45261;-73
2022/01/18 12:23:07;;;;;;;;;13.00;8.33;;;;;10.14;68.08;103223.91;5077630;28;45492;-73
2022/01/18 12:25:35;;;;;;;;;13.75;9.00;;;;;10.10;67.29;103206.09;5078920;28;45508;-73
2022/01/18 12:28:47;;;;;;;;;9.50;9.50;;;;;10.22;67.79;103222.53;5064650;27;46374;-73
2022/01/18 12:31:54;;;;;;;;;13.67;10.00;;;;;10.28;67.77;103211.41;5098693;27;45429;-72
2022/01/18 12:34:32;;;;;;;;;18.00;12.33;;;;;10.31;67.49;103207.22;5098728;27;45369;-73